Yeysk, Russia
Current Conditions -  °F | °C
As of 3:00 AM on Sunday 23 Nov 2014 (Local Time) from URRR Reporting Station
Clear Clear  
Wind Chill: 10°   Ceiling: Unl
Heat Index: 21°   Visibility: 5mi
Dew Point: 12°   Wind: 11mph
Humidity: 68%   Direction: 50°NE
Pressure: 30.27"   Gusts: NA
Location:  46.7°N, 38.27°E
Report Text: URRR 230000Z 05005MPS P8000 NSC M06/M11 Q1025 04CLRD70 NOSIG
Loading
Personal Weather Stations






























Interactive Weather Map New forecast layout! Learn more

10-Day Weather Forecast

Advertisements
Track Severe Weather on mobile